createdAt,value
2019-02-16T00:01:55.537Z,5.24
2019-02-16T00:04:21.414Z,5.01
2019-02-16T00:06:47.311Z,5.08
2019-02-16T00:09:13.172Z,5.28
2019-02-16T00:11:39.154Z,5.31
2019-02-16T00:14:05.034Z,5.36
2019-02-16T00:16:30.991Z,5.32
2019-02-16T00:18:56.988Z,5.36
2019-02-16T00:21:22.860Z,5.25
2019-02-16T00:23:48.729Z,5.35
2019-02-16T00:26:14.674Z,5.33
2019-02-16T00:28:40.676Z,5.15
2019-02-16T00:31:06.559Z,5.11
2019-02-16T00:33:32.438Z,5.14
2019-02-16T00:35:58.339Z,5.05
2019-02-16T00:38:24.230Z,5.18
2019-02-16T00:40:50.120Z,5.20
2019-02-16T00:43:16.099Z,5.09
2019-02-16T00:45:41.974Z,4.97
2019-02-16T00:48:07.836Z,4.88
2019-02-16T00:50:33.762Z,4.87
2019-02-16T00:52:59.691Z,4.77
2019-02-16T00:55:25.648Z,4.94
2019-02-16T00:57:51.569Z,4.90
2019-02-16T01:00:17.536Z,4.84
2019-02-16T01:02:43.506Z,4.89
2019-02-16T01:05:09.522Z,4.77
2019-02-16T01:07:35.379Z,4.84
2019-02-16T01:10:01.455Z,4.89
2019-02-16T01:12:27.364Z,4.74
2019-02-16T01:14:53.240Z,4.65
2019-02-16T01:17:19.310Z,4.59
2019-02-16T01:19:45.219Z,4.55
2019-02-16T01:22:11.174Z,4.61
2019-02-16T01:24:37.032Z,4.76
2019-02-16T01:27:03.164Z,4.72
2019-02-16T01:29:29.150Z,4.63
2019-02-16T01:31:55.135Z,4.68
2019-02-16T01:34:21.070Z,4.59
2019-02-16T01:36:46.952Z,4.51
2019-02-16T01:39:12.821Z,4.54
2019-02-16T01:41:38.819Z,4.60
2019-02-16T01:44:04.800Z,4.62
2019-02-16T01:46:30.680Z,4.57
2019-02-16T01:48:56.542Z,4.58
2019-02-16T01:51:31.446Z,4.50
2019-02-16T01:53:53.558Z,4.44
2019-02-16T01:56:19.424Z,4.47
2019-02-16T01:58:45.288Z,4.41
2019-02-16T02:01:11.255Z,4.55
2019-02-16T02:03:37.110Z,4.52
2019-02-16T02:06:03.343Z,4.48
2019-02-16T02:08:29.349Z,4.49
2019-02-16T02:10:55.221Z,4.47
2019-02-16T02:13:21.116Z,4.49
2019-02-16T02:15:46.993Z,4.46
2019-02-16T02:18:12.875Z,4.36
2019-02-16T02:20:38.876Z,4.33
2019-02-16T02:23:04.770Z,4.20
2019-02-16T02:25:30.641Z,4.34
2019-02-16T02:27:56.572Z,4.30
2019-02-16T02:30:22.531Z,4.25
2019-02-16T02:32:48.500Z,4.12
2019-02-16T02:35:14.508Z,4.21
2019-02-16T02:37:40.503Z,4.35
2019-02-16T02:40:06.818Z,4.32
2019-02-16T02:42:32.700Z,4.33
2019-02-16T02:44:58.665Z,4.40
2019-02-16T02:47:24.563Z,4.48
2019-02-16T02:49:50.678Z,4.46
2019-02-16T02:52:16.626Z,4.53
2019-02-16T02:54:42.598Z,4.56
2019-02-16T02:57:08.477Z,4.54
2019-02-16T02:59:34.364Z,4.50
2019-02-16T03:02:00.246Z,4.43
2019-02-16T03:04:26.307Z,4.47
2019-02-16T03:06:52.237Z,4.23
2019-02-16T03:09:18.141Z,4.22
2019-02-16T03:11:44.018Z,4.13
2019-02-16T03:14:10.007Z,4.15
2019-02-16T03:16:35.869Z,4.10
2019-02-16T03:19:01.754Z,4.10
2019-02-16T03:21:27.730Z,3.97
2019-02-16T03:23:53.593Z,4.15
2019-02-16T03:26:35.433Z,4.03
2019-02-16T03:29:20.175Z,3.99
2019-02-16T03:31:53.030Z,3.97
2019-02-16T03:34:34.778Z,4.01
2019-02-16T03:37:07.396Z,4.01
2019-02-16T03:39:34.972Z,3.79
2019-02-16T03:42:01.002Z,3.74
2019-02-16T03:44:27.000Z,3.71
2019-02-16T03:46:52.962Z,3.79
2019-02-16T03:49:18.975Z,3.79
2019-02-16T03:51:44.982Z,3.87
2019-02-16T03:54:10.851Z,3.86
2019-02-16T03:56:36.932Z,3.86
2019-02-16T03:59:02.855Z,3.69
2019-02-16T04:01:28.849Z,3.80
2019-02-16T04:03:54.687Z,3.72
2019-02-16T04:06:20.669Z,3.80
2019-02-16T04:08:46.581Z,3.79
2019-02-16T04:11:12.478Z,3.88
2019-02-16T04:13:38.358Z,3.95
2019-02-16T04:16:04.260Z,3.94
2019-02-16T04:18:30.123Z,3.81
2019-02-16T04:20:56.001Z,3.77
2019-02-16T04:23:21.876Z,3.70
2019-02-16T04:25:47.736Z,3.67
2019-02-16T04:28:13.706Z,3.57
2019-02-16T04:30:39.695Z,3.47
2019-02-16T04:33:05.703Z,3.28
2019-02-16T04:35:31.539Z,3.19
2019-02-16T04:37:57.547Z,3.24
2019-02-16T04:40:23.462Z,3.45
2019-02-16T04:42:49.358Z,3.45
2019-02-16T04:45:15.363Z,3.53
2019-02-16T04:47:41.235Z,3.40
2019-02-16T04:50:07.124Z,3.40
2019-02-16T04:52:35.114Z,3.63
2019-02-16T04:55:01.055Z,3.63
2019-02-16T04:57:31.097Z,3.63
2019-02-16T04:59:57.040Z,3.64
2019-02-16T05:02:22.925Z,3.64
2019-02-16T05:04:48.840Z,3.73
2019-02-16T05:07:14.747Z,3.69
2019-02-16T05:09:40.600Z,3.64
2019-02-16T05:12:06.477Z,3.81
2019-02-16T05:14:32.589Z,3.82
2019-02-16T05:16:58.421Z,3.67
2019-02-16T05:19:24.388Z,3.40
2019-02-16T05:21:50.340Z,3.47
2019-02-16T05:24:16.291Z,3.48
2019-02-16T05:26:42.256Z,3.56
2019-02-16T05:29:08.211Z,3.54
2019-02-16T05:31:34.061Z,3.59
2019-02-16T05:33:59.942Z,3.68
2019-02-16T05:36:25.841Z,3.41
2019-02-16T05:38:51.829Z,3.42
2019-02-16T05:41:17.727Z,3.37
2019-02-16T05:43:43.679Z,3.41
2019-02-16T05:46:09.598Z,3.50
2019-02-16T05:48:35.524Z,3.50
2019-02-16T05:51:01.459Z,3.48
2019-02-16T05:53:27.416Z,3.70
2019-02-16T05:55:53.311Z,3.65
2019-02-16T05:58:19.225Z,3.59
2019-02-16T06:00:45.136Z,3.59
2019-02-16T06:03:11.124Z,3.52
2019-02-16T06:05:37.130Z,3.42
2019-02-16T06:08:03.114Z,3.45
2019-02-16T06:10:29.135Z,3.40
2019-02-16T06:12:55.208Z,3.31
2019-02-16T06:15:21.104Z,3.38
2019-02-16T06:17:47.135Z,3.38
2019-02-16T06:20:13.077Z,3.42
2019-02-16T06:22:38.947Z,3.42
2019-02-16T06:25:05.133Z,3.50
2019-02-16T06:27:31.027Z,3.48
2019-02-16T06:29:56.927Z,3.50
2019-02-16T06:32:22.877Z,3.48
2019-02-16T06:34:50.774Z,3.41
2019-02-16T06:37:20.587Z,3.34
2019-02-16T06:39:47.660Z,3.36
2019-02-16T06:42:13.560Z,3.42
2019-02-16T06:44:39.450Z,3.42
2019-02-16T06:47:05.312Z,3.59
2019-02-16T06:49:31.202Z,3.58
2019-02-16T06:51:57.076Z,3.53
2019-02-16T06:54:22.958Z,3.52
2019-02-16T06:57:02.683Z,3.55
2019-02-16T06:59:28.782Z,3.55
2019-02-16T07:01:54.748Z,3.62
2019-02-16T07:04:20.762Z,3.62
2019-02-16T07:06:46.786Z,3.79
2019-02-16T07:09:12.762Z,3.77
2019-02-16T07:11:38.694Z,3.77
2019-02-16T07:14:04.634Z,3.86
2019-02-16T07:16:32.398Z,3.72
2019-02-16T07:19:02.962Z,3.95
2019-02-16T07:21:29.045Z,4.07
2019-02-16T07:23:54.935Z,4.16
2019-02-16T07:26:20.949Z,4.16
2019-02-16T07:28:46.927Z,4.12
2019-02-16T07:31:12.827Z,4.39
2019-02-16T07:33:38.721Z,4.59
2019-02-16T07:36:04.713Z,4.69
2019-02-16T07:38:30.801Z,4.70
2019-02-16T07:40:57.032Z,4.76
2019-02-16T07:43:36.849Z,4.71
2019-02-16T07:46:04.685Z,4.92
2019-02-16T07:48:32.586Z,4.99
2019-02-16T07:51:00.377Z,4.98
2019-02-16T07:53:31.349Z,5.11
2019-02-16T07:56:00.998Z,5.18
2019-02-16T07:58:32.111Z,5.32
2019-02-16T08:01:02.614Z,5.38
2019-02-16T08:03:39.323Z,5.66
2019-02-16T08:06:07.247Z,5.66
2019-02-16T08:08:37.740Z,5.77
2019-02-16T08:11:05.574Z,5.88
2019-02-16T08:13:39.643Z,5.97
2019-02-16T08:16:07.412Z,6.07
2019-02-16T08:18:47.082Z,6.20
2019-02-16T08:21:17.580Z,6.34
2019-02-16T08:24:02.127Z,6.45
2019-02-16T08:26:29.899Z,6.57
2019-02-16T08:29:00.802Z,6.65
2019-02-16T08:31:28.596Z,6.71
2019-02-16T08:34:05.218Z,6.80
2019-02-16T08:36:33.037Z,6.91
2019-02-16T08:39:10.107Z,7.02
2019-02-16T08:41:40.677Z,7.16
2019-02-16T08:44:11.157Z,7.37
2019-02-16T08:46:38.924Z,7.46
2019-02-16T08:49:21.901Z,7.55
2019-02-16T08:51:52.613Z,7.65
2019-02-16T08:54:29.621Z,7.75
2019-02-16T08:56:57.373Z,7.94
2019-02-16T08:59:42.323Z,8.04
2019-02-16T09:02:12.874Z,8.15
2019-02-16T09:04:56.829Z,8.18
2019-02-16T09:07:41.547Z,8.27
2019-02-16T09:10:12.053Z,8.57
2019-02-16T09:12:42.721Z,8.67
2019-02-16T09:15:16.310Z,8.75
2019-02-16T09:17:44.067Z,8.85
2019-02-16T09:20:17.876Z,8.97
2019-02-16T09:22:54.657Z,9.12
2019-02-16T09:25:25.164Z,9.29
2019-02-16T09:27:53.128Z,9.47
2019-02-16T09:30:37.488Z,9.47
2019-02-16T09:33:05.365Z,9.57
2019-02-16T09:35:45.206Z,9.69
2019-02-16T09:38:15.970Z,9.79
2019-02-16T09:40:46.720Z,9.92
2019-02-16T09:43:17.325Z,10.02
2019-02-16T09:45:57.223Z,10.10
2019-02-16T12:23:02.283Z,15.09
2019-02-16T12:25:48.131Z,15.87
2019-02-16T12:28:32.713Z,18.65
2019-02-16T12:31:00.594Z,18.76
2019-02-16T12:33:29.009Z,19.14
2019-02-16T12:35:59.765Z,20.14
2019-02-16T12:38:33.357Z,22.07
2019-02-16T12:41:01.120Z,18.79
2019-02-16T12:43:29.039Z,19.19
2019-02-16T12:46:00.019Z,18.89
2019-02-16T12:48:30.554Z,19.30
2019-02-16T12:50:59.535Z,18.72
2019-02-16T12:53:42.775Z,18.96
2019-02-16T12:56:10.549Z,16.39
2019-02-16T12:58:47.429Z,19.36
2019-02-16T13:01:21.086Z,21.80
2019-02-16T13:03:51.689Z,21.24
2019-02-16T13:06:19.503Z,23.37
2019-02-16T13:08:47.298Z,22.00
2019-02-16T13:11:15.110Z,21.76
2019-02-16T13:13:42.920Z,25.14
2019-02-16T13:16:10.806Z,23.31
2019-02-16T13:18:47.901Z,23.80
2019-02-16T13:21:18.404Z,25.52
2019-02-16T13:23:55.372Z,26.66
2019-02-16T13:26:31.947Z,25.97
2019-02-16T13:29:14.828Z,28.58
2019-02-16T13:31:48.505Z,28.08
2019-02-16T13:34:33.203Z,24.68
2019-02-16T13:37:12.936Z,26.40
2019-02-16T13:39:40.766Z,27.72
2019-02-16T13:42:11.544Z,28.26
2019-02-16T13:44:41.856Z,23.97
2019-02-16T13:47:09.702Z,25.93
2019-02-16T13:49:37.456Z,27.61
2019-02-16T13:52:14.625Z,29.00
2019-02-16T13:54:45.364Z,30.12
2019-02-16T13:57:31.356Z,31.88
2019-02-16T13:59:59.154Z,27.05
2019-02-16T14:02:32.823Z,25.40
2019-02-16T14:05:03.669Z,25.76
2019-02-16T14:07:31.432Z,26.10
2019-02-16T14:09:59.247Z,27.34
2019-02-16T14:12:32.839Z,28.41
2019-02-16T14:15:03.622Z,30.34
2019-02-16T14:17:34.121Z,26.35
2019-02-16T14:20:00.022Z,25.26
2019-02-16T14:22:25.913Z,26.39
2019-02-16T14:24:57.555Z,30.40
2019-02-16T14:27:23.551Z,29.44
2019-02-16T14:29:49.448Z,26.59
2019-02-16T14:32:15.354Z,28.94
2019-02-16T14:34:41.223Z,26.40
2019-02-16T14:37:09.012Z,24.87
2019-02-16T14:39:35.019Z,22.45
2019-02-16T14:42:00.891Z,22.48
2019-02-16T14:44:26.823Z,23.23
2019-02-16T14:46:52.792Z,23.89
2019-02-16T14:49:18.688Z,26.18
2019-02-16T14:51:44.688Z,26.92
2019-02-16T14:54:10.550Z,27.59
2019-02-16T14:56:36.543Z,28.16
2019-02-16T14:59:02.552Z,25.79
2019-02-16T15:01:28.448Z,27.70
2019-02-16T15:03:54.335Z,26.29
2019-02-16T15:06:20.329Z,24.84
2019-02-16T15:08:46.237Z,23.71
2019-02-16T15:11:12.108Z,23.91
2019-02-16T15:13:37.999Z,25.54
2019-02-16T15:16:04.259Z,23.01
2019-02-16T15:18:30.162Z,22.87
2019-02-16T15:20:56.102Z,21.35
2019-02-16T15:23:22.170Z,23.02
2019-02-16T15:25:48.213Z,23.04
2019-02-16T15:28:14.081Z,24.17
2019-02-16T15:30:40.018Z,23.26
2019-02-16T15:33:05.870Z,22.16
2019-02-16T15:35:31.832Z,17.78
2019-02-16T15:37:57.823Z,16.25
2019-02-16T15:40:23.897Z,15.53
2019-02-16T15:42:49.796Z,15.14
2019-02-16T15:45:15.957Z,15.08
2019-02-16T15:47:41.827Z,15.01
2019-02-16T15:50:09.912Z,14.70
2019-02-16T15:52:35.918Z,14.53
2019-02-16T15:55:02.007Z,14.47
2019-02-16T15:57:27.971Z,14.41
2019-02-16T15:59:54.051Z,14.34
2019-02-16T16:02:19.978Z,14.27
2019-02-16T16:04:46.001Z,13.99
2019-02-16T16:07:13.839Z,13.85
2019-02-16T16:09:47.621Z,13.72
2019-02-16T16:12:22.062Z,13.63
2019-02-16T16:14:49.917Z,13.56
2019-02-16T16:17:17.728Z,13.49
2019-02-16T16:19:54.614Z,13.33
2019-02-16T16:22:25.255Z,13.25
2019-02-16T16:25:09.712Z,13.19
2019-02-16T16:27:40.223Z,13.03
2019-02-16T16:30:14.507Z,12.92
2019-02-16T16:32:58.793Z,12.81
2019-02-16T16:35:38.410Z,12.70
2019-02-16T16:38:12.204Z,12.58
2019-02-16T16:40:52.157Z,12.37
2019-02-16T16:43:20.121Z,12.24
2019-02-16T16:45:59.905Z,12.12
2019-02-16T16:48:30.430Z,12.04
2019-02-16T16:51:01.165Z,11.79
2019-02-16T16:53:31.691Z,11.41
2019-02-16T16:55:59.664Z,11.22
2019-02-16T16:58:33.304Z,11.06
2019-02-16T17:01:13.130Z,11.00
2019-02-16T17:03:41.060Z,10.94
2019-02-16T17:06:09.061Z,10.74
2019-02-16T17:08:36.847Z,10.65
2019-02-16T17:11:04.766Z,10.63
2019-02-16T17:13:32.576Z,10.68
2019-02-16T17:16:17.148Z,10.53
2019-02-16T17:18:47.696Z,10.34
2019-02-16T17:21:15.476Z,10.35
2019-02-16T17:23:55.646Z,10.25
2019-02-16T17:26:26.299Z,10.07
2019-02-16T17:29:03.344Z,10.01
2019-02-16T17:31:37.106Z,9.95
2019-02-16T17:34:13.940Z,10.07
2019-02-16T17:36:42.289Z,10.08
2019-02-16T17:39:10.211Z,9.87
2019-02-16T17:41:56.119Z,9.74
2019-02-16T17:44:33.107Z,9.60
2019-02-16T17:47:09.664Z,9.52
2019-02-16T17:49:46.589Z,9.38
2019-02-16T17:52:31.114Z,9.32
2019-02-16T17:55:07.864Z,9.21
2019-02-16T17:57:35.679Z,9.07
2019-02-16T18:00:04.849Z,9.03
2019-02-16T18:02:41.648Z,9.14
2019-02-16T18:05:18.360Z,9.11
2019-02-16T18:07:48.901Z,9.07
2019-02-16T18:10:31.999Z,8.99
2019-02-16T18:12:59.801Z,8.94
2019-02-16T18:15:47.471Z,8.99
2019-02-16T18:18:27.260Z,8.88
2019-02-16T18:20:55.051Z,8.89
2019-02-16T18:23:39.767Z,8.95
2019-02-16T18:26:13.347Z,8.91
2019-02-16T18:28:57.072Z,8.84
2019-02-16T18:31:38.291Z,8.70
2019-02-16T18:34:15.059Z,8.63
2019-02-16T18:37:01.398Z,8.68
2019-02-16T18:39:41.292Z,8.78
2019-02-16T18:42:27.443Z,8.76
2019-02-16T18:44:55.485Z,8.67
2019-02-16T18:47:35.546Z,8.56
2019-02-16T18:50:21.912Z,8.44
2019-02-16T18:53:01.704Z,8.42
2019-02-16T18:55:35.371Z,8.35
2019-02-16T18:58:12.043Z,8.18
2019-02-16T19:00:42.677Z,8.28
2019-02-16T19:03:10.565Z,8.20
2019-02-16T19:05:55.158Z,8.17
2019-02-16T19:08:23.037Z,8.10
2019-02-16T19:10:50.908Z,8.18
2019-02-16T19:13:18.739Z,8.11
2019-02-16T19:16:03.318Z,8.12
2019-02-16T19:18:43.214Z,7.95
2019-02-16T19:21:17.184Z,7.88
2019-02-16T19:23:53.887Z,7.90
2019-02-16T19:26:24.481Z,7.91
2019-02-16T19:28:52.338Z,7.86
2019-02-16T19:31:36.734Z,7.85
2019-02-16T19:34:19.483Z,7.82
2019-02-16T19:36:53.429Z,7.81
2019-02-16T19:39:21.303Z,7.81
2019-02-16T19:41:52.391Z,7.73
2019-02-16T19:44:20.661Z,7.55
2019-02-16T19:46:48.913Z,7.52
2019-02-16T19:49:23.364Z,7.47
2019-02-16T19:51:51.994Z,7.45
2019-02-16T19:54:32.769Z,7.43
2019-02-16T19:57:04.240Z,7.44
2019-02-16T19:59:32.949Z,7.45
2019-02-16T20:02:01.370Z,7.36
2019-02-16T20:04:46.592Z,7.34
2019-02-16T20:07:18.124Z,7.38
2019-02-16T20:09:55.963Z,7.39
2019-02-16T20:12:24.804Z,7.35
2019-02-16T20:15:10.392Z,7.32
2019-02-16T20:17:39.439Z,7.32
2019-02-16T20:20:12.780Z,7.25
2019-02-16T20:22:53.374Z,7.30
2019-02-16T20:25:21.997Z,7.07
2019-02-16T20:27:50.666Z,7.14
2019-02-16T20:30:28.096Z,7.10
2019-02-16T20:33:01.694Z,7.03
2019-02-16T20:35:29.479Z,7.06
2019-02-16T20:37:57.445Z,7.04
2019-02-16T20:40:28.397Z,7.00
2019-02-16T20:42:56.179Z,6.96
2019-02-16T20:45:30.076Z,6.93
2019-02-16T20:48:03.727Z,6.97
2019-02-16T20:50:40.793Z,6.92
2019-02-16T20:53:23.869Z,6.87
2019-02-16T20:56:00.725Z,6.88
2019-02-16T20:58:28.529Z,6.89
2019-02-16T21:00:59.070Z,6.84
2019-02-16T21:03:27.370Z,6.78
2019-02-16T21:06:01.807Z,6.76
2019-02-16T21:08:36.775Z,6.77
2019-02-16T21:11:05.949Z,6.77
2019-02-16T21:13:34.931Z,6.63
2019-02-16T21:16:06.824Z,6.53
2019-02-16T21:18:35.687Z,6.50
2019-02-16T21:21:23.154Z,6.48
2019-02-16T21:23:55.179Z,6.44
2019-02-16T21:26:37.003Z,6.38
2019-02-16T21:29:13.392Z,6.43
2019-02-16T21:31:54.785Z,6.50
2019-02-16T21:34:23.589Z,6.58
2019-02-16T21:36:52.089Z,6.50
2019-02-16T21:39:32.217Z,6.39
2019-02-16T21:42:06.422Z,6.35
2019-02-16T21:44:40.028Z,6.42
2019-02-16T21:47:07.783Z,6.47
2019-02-16T21:49:39.540Z,6.21
2019-02-16T21:52:13.553Z,6.20
2019-02-16T21:54:59.512Z,6.21
2019-02-16T21:57:39.347Z,6.15
2019-02-16T22:00:24.804Z,6.12
2019-02-16T22:02:55.305Z,6.14
2019-02-16T22:05:32.178Z,6.09
2019-02-16T22:07:59.945Z,6.13
2019-02-16T22:10:45.865Z,6.00
2019-02-16T22:13:11.890Z,6.03
2019-02-16T22:15:37.872Z,5.98
2019-02-16T22:18:07.196Z,6.04
2019-02-16T22:20:33.177Z,6.10
2019-02-16T22:22:59.166Z,6.03
2019-02-16T22:25:25.179Z,6.09
2019-02-16T22:27:51.033Z,6.06
2019-02-16T22:30:17.056Z,6.10
2019-02-16T22:32:42.948Z,6.11
2019-02-16T22:35:08.934Z,6.13
2019-02-16T22:37:34.817Z,6.02
2019-02-16T22:40:00.837Z,5.88
2019-02-16T22:42:26.691Z,5.83
2019-02-16T22:44:52.654Z,5.90
2019-02-16T22:47:18.649Z,5.83
2019-02-16T22:49:44.516Z,5.74
2019-02-16T22:52:10.541Z,5.72
2019-02-16T22:54:36.435Z,5.76
2019-02-16T22:57:02.393Z,5.69
2019-02-16T22:59:28.334Z,5.70
2019-02-16T23:01:54.435Z,5.71
2019-02-16T23:04:20.597Z,5.80
2019-02-16T23:06:46.771Z,5.80
2019-02-16T23:09:14.961Z,5.78
2019-02-16T23:11:40.836Z,5.69
2019-02-16T23:14:06.819Z,5.72
2019-02-16T23:16:32.907Z,5.78
2019-02-16T23:19:02.489Z,5.71
2019-02-16T23:21:28.364Z,5.69
2019-02-16T23:23:54.342Z,5.57
2019-02-16T23:26:20.245Z,5.47
2019-02-16T23:28:46.208Z,5.45
2019-02-16T23:31:12.077Z,5.49
2019-02-16T23:33:38.101Z,5.62
2019-02-16T23:36:04.010Z,5.64
2019-02-16T23:38:31.088Z,5.57
2019-02-16T23:40:57.109Z,5.59
2019-02-16T23:43:23.095Z,5.59
2019-02-16T23:45:49.188Z,5.48
2019-02-16T23:48:15.211Z,5.51
2019-02-16T23:50:41.211Z,5.50
2019-02-16T23:53:07.194Z,5.47
2019-02-16T23:55:33.092Z,5.50
2019-02-16T23:57:59.077Z,5.50
